Latest Weather Observations for Ceduna

IDS60801

Issued at 9:31 pm CDT Sunday 26 March 2017 (issued every 30 minutes, with the page automatically refreshed every 10 minutes)

About weather observations | Map of weather stations | Latest weather observations for SA | Other Formats
Station Details ID: 018012 Name: CEDUNA AMO Lat: -32.13 Lon: 133.70 Height: 15.3 m
Data from the previous 72 hours. | See also: Recent months at Ceduna
Date/Time
CDT
Temp
°C
App
Temp
°C
Dew
Point
°C
Rel
Hum
%
Delta-T
°C
Wind Press
QNH
hPa
Press
MSL
hPa
Rain since
9am
mm
Dir  Spd
km/h
Gust
km/h
Spd
kts
Gust
kts
26/09:30pm 24.7 22.1 18.6 69 3.9 WSW 30 46 16 25 1007.2 1007.1 0.0
26/09:22pm 25.2 22.8 18.2 65 4.4 WSW 28 46 15 25 1006.9 1006.8 0.0
26/09:00pm 26.7 23.7 16.9 55 6.1 WSW 28 39 15 21 1006.3 1006.2 0.0
26/08:30pm 29.6 27.4 15.0 41 8.9 WSW 20 26 11 14 1005.3 1005.2 0.0
26/08:00pm 32.0 29.5 12.3 30 11.7 WSW 17 24 9 13 1004.4 1004.3 0.0
26/07:30pm 35.2 33.6 10.3 22 14.5 SE 9 11 5 6 1002.9 1002.8 0.0
26/07:00pm 37.6 36.3 10.0 19 16.1 S 7 11 4 6 1002.7 1002.6 0.0
26/06:30pm 37.6 35.4 10.8 20 15.9 SSW 13 17 7 9 1002.5 1002.4 0.0
26/06:00pm 38.6 35.3 10.9 19 16.5 SW 19 24 10 13 1002.4 1002.3 0.0
26/05:55pm 38.6 35.8 10.0 18 16.8 SW 15 24 8 13 1002.3 1002.2 0.0
26/05:30pm 43.8 37.4 6.8 11 21.3 NW 30 50 16 27 1002.3 1002.2 0.0
26/05:26pm 43.7 36.9 6.8 11 21.2 NNW 32 50 17 27 1002.2 1002.1 0.0
26/05:00pm 43.8 38.5 6.8 11 21.2 NNW 24 43 13 23 1002.3 1002.2 0.0
26/04:30pm 44.1 37.3 7.1 11 21.4 NNW 32 50 17 27 1002.4 1002.3 0.0
26/04:26pm 43.9 37.5 6.9 11 21.3 N 30 50 16 27 1002.3 1002.2 0.0
26/04:00pm 43.9 37.1 6.9 11 21.3 N 32 46 17 25 1002.3 1002.2 0.0
26/03:30pm 43.4 35.9 6.5 11 21.1 N 35 50 19 27 1002.6 1002.5 0.0
26/03:00pm 43.8 37.3 8.1 12 20.9 NNW 32 41 17 22 1003.1 1003.0 0.0
26/02:36pm 43.2 36.0 7.7 12 20.6 NNW 35 56 19 30 1003.5 1003.4 0.0
26/02:30pm 42.8 35.5 7.3 12 20.5 NNW 35 46 19 25 1003.8 1003.7 0.0
26/02:00pm 42.4 34.3 7.0 12 20.2 NNW 39 50 21 27 1004.6 1004.5 0.0
26/01:30pm 42.0 34.5 7.9 13 19.8 NNW 37 48 20 26 1005.2 1005.1 0.0
26/01:00pm 40.3 33.7 8.7 15 18.3 N 33 46 18 25 1005.9 1005.8 0.0
26/12:30pm 39.6 33.7 9.1 16 17.8 N 30 48 16 26 1006.6 1006.5 0.0
26/12:28pm 39.7 34.2 9.2 16 17.8 N 28 48 15 26 1006.6 1006.5 0.0
26/12:00pm 37.9 32.9 11.1 20 16.0 N 28 35 15 19 1007.3 1007.2 0.0
26/11:30am 36.3 31.0 11.2 22 14.9 N 30 39 16 21 1007.7 1007.6 0.0
26/11:00am 34.9 29.6 12.5 25 13.4 NNE 32 41 17 22 1008.0 1007.9 0.0
26/10:30am 32.9 28.1 13.0 30 12.0 NNE 30 43 16 23 1008.2 1008.1 0.0
26/10:00am 30.8 25.5 13.1 34 10.5 NNE 33 44 18 24 1008.1 1008.0 0.0
26/09:30am 29.2 24.6 13.4 38 9.4 NNE 30 39 16 21 1008.1 1008.0 0.0
26/09:00am 27.4 24.4 13.7 43 8.1 NE 22 33 12 18 1008.0 1007.9 0.0
26/08:30am 25.6 22.9 13.5 47 7.1 NE 20 28 11 15 1007.9 1007.8 0.0
26/08:00am 24.7 20.9 13.6 50 6.5 NE 26 32 14 17 1007.9 1007.8 0.0
26/07:30am 24.0 20.2 13.5 52 6.1 NE 26 32 14 17 1007.7 1007.6 0.0
26/07:00am 22.9 19.2 13.9 57 5.3 ENE 26 30 14 16 1007.4 1007.3 0.0
26/06:30am 21.5 18.4 14.6 65 4.1 ENE 24 28 13 15 1007.7 1007.6 0.0
26/06:00am 20.9 18.3 15.0 69 3.5 ENE 22 26 12 14 1007.8 1007.7 0.0
26/05:30am 21.2 18.8 15.5 70 3.4 ENE 22 28 12 15 1008.1 1008.0 0.0
26/05:00am 21.0 18.6 15.5 71 3.3 ENE 22 28 12 15 1008.3 1008.2 0.0
26/04:30am 20.3 18.3 15.5 74 2.9 ENE 20 24 11 13 1008.6 1008.5 0.0
26/04:00am 19.6 19.2 16.1 80 2.1 ENE 13 17 7 9 1009.2 1009.1 0.0
26/03:30am 19.5 19.5 16.3 82 1.9 E 11 15 6 8 1009.7 1009.6 0.0
26/03:00am 20.2 20.2 17.2 83 1.8 ESE 13 17 7 9 1010.3 1010.2 0.0
26/02:30am 21.2 21.3 18.4 84 1.8 ESE 15 17 8 9 1010.5 1010.4 0.0
26/02:00am 21.4 21.2 18.4 83 1.9 SSE 17 20 9 11 1011.0 1010.9 0.0
26/01:30am 20.9 20.9 17.1 79 2.3 SE 13 15 7 8 1011.2 1011.1 0.0
26/01:00am 20.7 21.1 17.3 81 2.1 SE 11 13 6 7 1011.4 1011.3 0.0
26/12:30am 20.5 20.8 17.1 81 2.1 SSE 11 13 6 7 1011.9 1011.8 0.0
26/12:00am 21.1 21.5 17.3 79 2.3 SE 11 13 6 7 1011.9 1011.8 0.0
 
Date/Time
CDT
Temp
°C
App
Temp
°C
Dew
Point
°C
Rel
Hum
%
Delta-T
°C
Wind Press
QNH
hPa
Press
MSL
hPa
Rain since
9am
mm
Dir  Spd
km/h
Gust
km/h
Spd
kts
Gust
kts
25/11:30pm 21.5 22.3 18.1 81 2.1 SSE 11 13 6 7 1012.0 1011.9 0.0
25/11:00pm 21.2 21.8 17.8 81 2.1 SE 11 15 6 8 1012.2 1012.1 0.0
25/10:30pm 21.9 22.4 18.3 80 2.3 SE 13 15 7 8 1012.4 1012.3 0.0
25/10:00pm 22.2 22.5 17.8 76 2.7 SSE 13 15 7 8 1012.3 1012.2 0.0
25/09:30pm 22.7 22.8 17.4 72 3.3 SSE 13 17 7 9 1012.3 1012.2 0.0
25/09:00pm 23.2 23.3 17.4 70 3.6 SSE 13 17 7 9 1011.9 1011.8 0.0
25/08:30pm 23.6 23.2 17.1 67 4.0 SE 15 19 8 10 1011.5 1011.4 0.0
25/08:00pm 23.0 22.8 17.7 72 3.3 SSE 15 19 8 10 1011.5 1011.4 0.0
25/07:30pm 23.2 22.3 18.1 73 3.2 SSE 20 24 11 13 1011.5 1011.4 0.0
25/07:00pm 25.0 24.5 17.7 64 4.6 SSE 17 22 9 12 1011.3 1011.2 0.0
25/06:30pm 25.4 24.5 17.8 62 4.8 SSE 19 24 10 13 1011.1 1011.0 0.0
25/06:00pm 26.0 25.3 18.2 62 4.9 SSE 19 24 10 13 1011.1 1011.0 0.0
25/05:30pm 26.2 24.5 17.3 58 5.6 SSE 22 30 12 16 1011.0 1010.9 0.0
25/05:00pm 25.8 24.3 17.7 61 5.1 SSE 22 26 12 14 1011.2 1011.1 0.0
25/04:30pm 26.5 24.7 17.0 56 5.9 S 22 28 12 15 1011.4 1011.3 0.0
25/04:00pm 26.5 25.0 17.8 58 5.5 SSE 22 28 12 15 1011.3 1011.2 0.0
25/03:30pm 25.6 24.3 17.3 60 5.2 SSE 20 24 11 13 1011.5 1011.4 0.0
25/03:00pm 25.6 23.4 17.0 59 5.3 S 24 28 13 15 1012.0 1011.9 0.0
25/02:30pm 26.1 23.7 16.4 55 6.0 S 24 30 13 16 1012.2 1012.1 0.0
25/02:00pm 24.9 21.6 16.1 58 5.4 S 28 33 15 18 1012.9 1012.8 0.0
25/01:30pm 25.8 22.9 16.1 55 5.9 S 26 35 14 19 1013.2 1013.1 0.0
25/01:00pm 25.8 23.2 16.9 58 5.5 S 26 32 14 17 1013.6 1013.5 0.0
25/12:30pm 24.9 22.5 17.4 63 4.7 S 26 32 14 17 1013.7 1013.6 0.0
25/12:00pm 25.8 23.5 16.6 56 5.7 S 24 30 13 16 1013.9 1013.8 0.0
25/11:30am 26.3 25.5 17.9 60 5.3 S 19 24 10 13 1014.1 1014.0 0.0
25/11:00am 24.6 24.4 17.6 65 4.4 S 15 19 8 10 1013.8 1013.7 0.0
25/10:30am 23.6 23.4 17.6 69 3.7 S 15 22 8 12 1014.1 1014.0 0.0
25/10:00am 23.4 24.0 18.5 74 3.1 S 13 17 7 9 1014.1 1014.0 0.0
25/09:30am 22.6 23.1 18.4 77 2.6 SSW 13 19 7 10 1013.8 1013.7 0.0
25/09:00am 21.7 22.1 19.1 85 1.6 SSW 15 19 8 10 1013.6 1013.5 0.0
25/08:30am 19.0 21.2 16.4 85 1.6 CALM 0 0 0 0 1013.3 1013.2 0.0
25/08:00am 17.0 18.6 15.0 88 1.2 CALM 0 0 0 0 1012.9 1012.8 0.0
25/07:30am 16.4 16.7 14.4 88 1.1 SSE 6 7 3 4 1012.7 1012.6 0.0
25/07:00am 17.5 18.0 15.5 88 1.2 SSW 7 7 4 4 1012.6 1012.5 0.0
25/06:30am 17.5 17.3 15.8 90 1.0 SSW 11 15 6 8 1012.3 1012.2 0.0
25/06:00am 16.6 16.9 14.4 87 1.3 SSW 6 7 3 4 1011.9 1011.8 0.0
25/05:30am 17.4 17.8 15.4 88 1.2 SSW 7 9 4 5 1011.9 1011.8 0.0
25/05:00am 17.3 18.4 15.5 89 1.1 SW 4 9 2 5 1011.7 1011.6 0.0
25/04:30am 17.5 18.2 15.5 88 1.2 WNW 6 9 3 5 1011.6 1011.5 0.0
25/04:00am 18.0 18.3 16.0 88 1.2 NNE 9 11 5 6 1011.2 1011.1 0.0
25/03:30am 18.0 19.2 16.0 88 1.2 NNE 4 9 2 5 1011.5 1011.4 0.0
25/03:00am 17.7 19.6 15.7 88 1.2 CALM 0 0 0 0 1012.0 1011.9 0.0
25/02:30am 18.1 19.3 15.9 87 1.3 ESE 4 7 2 4 1011.9 1011.8 0.0
25/02:00am 18.4 19.1 16.0 86 1.4 ESE 7 9 4 5 1011.8 1011.7 0.0
25/01:30am 18.6 19.0 16.2 86 1.4 SE 9 9 5 5 1012.2 1012.1 0.0
25/01:00am 19.2 21.4 16.6 85 1.6 CALM 0 0 0 0 1012.7 1012.6 0.0
25/12:30am 19.9 20.9 16.9 83 1.8 SE 7 9 4 5 1012.8 1012.7 0.0
25/12:00am 20.7 21.2 17.5 82 2.0 SE 11 17 6 9 1013.1 1013.0 0.0
 
Date/Time
CDT
Temp
°C
App
Temp
°C
Dew
Point
°C
Rel
Hum
%
Delta-T
°C
Wind Press
QNH
hPa
Press
MSL
hPa
Rain since
9am
mm
Dir  Spd
km/h
Gust
km/h
Spd
kts
Gust
kts
24/11:30pm 21.0 20.4 17.6 81 2.1 SSE 17 20 9 11 1013.5 1013.4 0.0
24/11:00pm 21.2 20.3 17.8 81 2.1 SSE 19 24 10 13 1013.6 1013.5 0.0
24/10:30pm 21.6 20.7 17.8 79 2.4 SSE 19 24 10 13 1013.4 1013.3 0.0
24/10:00pm 21.7 21.2 17.9 79 2.4 S 17 22 9 12 1013.5 1013.4 0.0
24/09:30pm 22.0 20.8 17.6 76 2.7 SSE 20 28 11 15 1012.9 1012.8 0.0
24/09:00pm 22.2 20.9 17.3 74 3.0 SSE 20 28 11 15 1012.5 1012.4 0.0
24/08:30pm 22.6 20.8 16.9 70 3.5 S 22 28 12 15 1012.4 1012.3 0.0
24/08:00pm 22.8 20.9 16.6 68 3.8 S 22 30 12 16 1012.2 1012.1 0.0
24/07:30pm 24.1 21.8 15.6 59 5.1 S 22 28 12 15 1011.8 1011.7 0.0
24/07:00pm 26.0 23.6 14.5 49 6.9 SSE 20 28 11 15 1011.5 1011.4 0.0
24/06:30pm 26.9 24.5 14.3 46 7.5 SSE 20 28 11 15 1011.2 1011.1 0.0
24/06:00pm 27.5 24.7 14.2 44 8.0 S 22 30 12 16 1011.5 1011.4 0.0
24/05:30pm 28.1 24.7 13.6 41 8.6 S 24 32 13 17 1011.3 1011.2 0.0
24/05:00pm 28.5 25.1 13.6 40 8.9 S 24 30 13 16 1011.3 1011.2 0.0
24/04:30pm 28.1 24.7 14.7 44 8.1 S 26 33 14 18 1011.4 1011.3 0.0
24/04:00pm 27.7 24.0 15.0 45 7.7 SSW 28 43 15 23 1011.3 1011.2 0.0
24/03:39pm 28.4 25.2 16.3 47 7.5 SSW 28 46 15 25 1011.2 1011.1 0.0
24/03:38pm 27.5 24.5 15.8 48 7.2 SSW 26 46 14 25 1011.2 1011.1 0.0
24/03:30pm 33.0 30.5 14.1 32 11.5 SSW 20 26 11 14 1011.0 1010.9 0.0
24/03:00pm 34.0 31.5 13.5 29 12.5 SSW 19 24 10 13 1011.1 1011.0 0.0
24/02:30pm 33.3 31.4 12.9 29 12.3 SSW 15 20 8 11 1011.5 1011.4 0.0
24/02:00pm 33.6 31.3 13.1 29 12.4 SW 17 22 9 12 1011.7 1011.6 0.0
24/01:30pm 34.1 33.0 13.0 28 12.7 WNW 11 17 6 9 1011.9 1011.8 0.0
24/01:00pm 33.0 32.3 13.1 30 12.0 WNW 9 15 5 8 1012.4 1012.3 0.0
24/12:30pm 32.7 31.4 13.8 31 11.5 NW 13 17 7 9 1012.9 1012.8 0.0
24/12:00pm 29.9 29.3 15.6 42 8.8 SW 13 17 7 9 1013.2 1013.1 0.0
24/11:30am 31.3 30.0 12.6 31 11.1 N 11 19 6 10 1013.2 1013.1 0.0
24/11:00am 30.1 28.3 13.4 36 10.0 NNE 15 20 8 11 1013.0 1012.9 0.0
24/10:30am 28.5 26.8 13.6 40 8.9 NNE 15 20 8 11 1013.0 1012.9 0.0
24/10:00am 26.0 25.0 14.5 49 6.9 NNE 13 17 7 9 1013.1 1013.0 0.0
24/09:58am 25.9 25.1 15.0 51 6.6 NNE 13 17 7 9 1013.0 1012.9 0.0
24/09:30am 20.7 22.6 15.7 73 3.0 CALM 0 6 0 3 1012.8 1012.7 0.0
24/09:00am 18.4 20.0 14.9 80 2.0 CALM 0 0 0 0 1012.4 1012.3 0.0
24/08:30am 16.3 16.8 14.0 86 1.3 NNE 4 7 2 4 1012.6 1012.5 0.0
24/08:00am 15.7 15.5 13.5 87 1.2 NNE 7 9 4 5 1012.4 1012.3 0.0
24/07:30am 15.7 15.5 13.5 87 1.2 NNE 7 9 4 5 1012.2 1012.1 0.0
24/07:00am 14.7 14.3 13.1 90 0.9 ENE 7 11 4 6 1012.2 1012.1 0.0
24/06:30am 14.4 15.3 12.8 90 0.9 CALM 0 0 0 0 1012.2 1012.1 0.0
24/06:00am 14.5 15.3 12.5 88 1.1 CALM 0 0 0 0 1011.8 1011.7 0.0
24/05:30am 15.7 15.7 13.7 88 1.1 N 6 7 3 4 1011.5 1011.4 0.0
24/05:00am 16.2 15.8 14.2 88 1.1 E 9 13 5 7 1011.2 1011.1 0.0
24/04:30am 15.9 15.7 13.7 87 1.2 SSE 7 9 4 5 1011.5 1011.4 0.0
24/04:00am 16.9 16.7 14.7 87 1.3 SSW 9 11 5 6 1011.7 1011.6 0.0
24/03:30am 17.1 17.5 14.7 86 1.4 SSW 6 7 3 4 1011.5 1011.4 0.0
24/03:00am 16.5 16.5 14.3 87 1.3 SE 7 9 4 5 1011.5 1011.4 0.0
24/02:30am 16.2 15.8 14.0 87 1.2 SSE 9 11 5 6 1012.0 1011.9 0.0
24/02:00am 16.7 16.8 14.0 84 1.5 SW 6 7 3 4 1012.4 1012.3 0.0
24/01:30am 17.6 18.1 15.0 85 1.5 SE 6 9 3 5 1012.7 1012.6 0.0
24/01:00am 17.8 17.2 14.7 82 1.8 ESE 11 13 6 7 1012.7 1012.6 0.0
24/12:30am 18.9 19.5 15.4 80 2.1 SSE 6 7 3 4 1013.2 1013.1 0.0
24/12:00am 19.5 19.6 15.6 78 2.3 ESE 9 13 5 7 1013.6 1013.5 0.0
 
Date/Time
CDT
Temp
°C
App
Temp
°C
Dew
Point
°C
Rel
Hum
%
Delta-T
°C
Wind Press
QNH
hPa
Press
MSL
hPa
Rain since
9am
mm
Dir  Spd
km/h
Gust
km/h
Spd
kts
Gust
kts
23/11:30pm 20.0 18.8 16.0 78 2.4 ESE 17 17 9 9 1013.4 1013.3 0.0
23/11:00pm 20.4 19.3 16.4 78 2.4 E 17 20 9 11 1013.8 1013.7 0.0
23/10:30pm 20.5 19.0 16.3 77 2.5 ESE 19 22 10 12 1013.8 1013.7 0.0
23/10:00pm 21.2 18.9 16.6 75 2.8 SE 24 32 13 17 1013.9 1013.8 0.0

Other Formats:

Comma delimited format used in spreadsheet applications
http://www.bom.gov.au/fwo/IDS60801/IDS60801.94653.axf

JavaScript Object Notation format (JSON) in row-major order
http://www.bom.gov.au/fwo/IDS60801/IDS60801.94653.json